sensor_id;sensor_type;location;lat;lon;timestamp;pressure;altitude;pressure_sealevel;temperature;humidity
54996;BME280;40893;47.146;9.126;2022-07-23T00:01:43;91617.47;;;19.78;100.00
54996;BME280;40893;47.146;9.126;2022-07-23T00:04:09;91608.69;;;19.82;99.61
54996;BME280;40893;47.146;9.126;2022-07-23T00:06:47;91591.53;;;19.69;99.51
54996;BME280;40893;47.146;9.126;2022-07-23T00:09:13;91583.03;;;19.48;95.26
54996;BME280;40893;47.146;9.126;2022-07-23T00:11:38;91572.94;;;19.46;98.75
54996;BME280;40893;47.146;9.126;2022-07-23T00:14:04;91572.50;;;19.44;91.95
54996;BME280;40893;47.146;9.126;2022-07-23T00:16:29;91584.03;;;19.55;92.70
54996;BME280;40893;47.146;9.126;2022-07-23T00:18:55;91603.69;;;19.65;98.50
54996;BME280;40893;47.146;9.126;2022-07-23T00:21:22;91614.97;;;19.69;98.23
54996;BME280;40893;47.146;9.126;2022-07-23T00:23:48;91624.97;;;19.46;97.25
54996;BME280;40893;47.146;9.126;2022-07-23T00:26:14;91637.44;;;19.41;100.00
54996;BME280;40893;47.146;9.126;2022-07-23T00:28:39;91658.34;;;19.44;100.00
54996;BME280;40893;47.146;9.126;2022-07-23T00:31:05;91673.41;;;19.39;100.00
54996;BME280;40893;47.146;9.126;2022-07-23T00:33:30;91655.25;;;19.30;98.55
54996;BME280;40893;47.146;9.126;2022-07-23T00:35:56;91624.59;;;19.23;98.92
54996;BME280;40893;47.146;9.126;2022-07-23T00:38:21;91593.06;;;19.25;97.65
54996;BME280;40893;47.146;9.126;2022-07-23T00:40:47;91563.91;;;19.32;99.89
54996;BME280;40893;47.146;9.126;2022-07-23T00:43:12;91562.19;;;19.36;99.18
54996;BME280;40893;47.146;9.126;2022-07-23T00:45:38;91574.25;;;19.40;99.19
54996;BME280;40893;47.146;9.126;2022-07-23T00:48:07;91563.63;;;19.45;98.78
54996;BME280;40893;47.146;9.126;2022-07-23T00:51:04;91542.59;;;19.38;99.30
54996;BME280;40893;47.146;9.126;2022-07-23T00:53:32;91544.63;;;19.33;97.01
54996;BME280;40893;47.146;9.126;2022-07-23T00:56:00;91542.56;;;19.26;98.90
54996;BME280;40893;47.146;9.126;2022-07-23T00:58:25;91543.63;;;19.25;100.00
54996;BME280;40893;47.146;9.126;2022-07-23T01:00:51;91537.09;;;19.19;100.00
54996;BME280;40893;47.146;9.126;2022-07-23T01:03:16;91523.88;;;19.12;99.96
54996;BME280;40893;47.146;9.126;2022-07-23T01:05:42;91523.22;;;19.03;99.88
54996;BME280;40893;47.146;9.126;2022-07-23T01:08:08;91528.41;;;19.03;100.00
54996;BME280;40893;47.146;9.126;2022-07-23T01:10:33;91528.41;;;19.03;98.17
54996;BME280;40893;47.146;9.126;2022-07-23T01:13:04;91528.09;;;19.04;98.69
54996;BME280;40893;47.146;9.126;2022-07-23T01:15:31;91529.59;;;18.93;99.48
54996;BME280;40893;47.146;9.126;2022-07-23T01:17:57;91530.34;;;18.94;100.00
54996;BME280;40893;47.146;9.126;2022-07-23T01:20:22;91514.06;;;18.84;100.00
54996;BME280;40893;47.146;9.126;2022-07-23T01:22:48;91508.13;;;18.84;100.00
54996;BME280;40893;47.146;9.126;2022-07-23T01:25:14;91497.47;;;18.77;99.48
54996;BME280;40893;47.146;9.126;2022-07-23T01:27:39;91485.50;;;18.84;100.00
54996;BME280;40893;47.146;9.126;2022-07-23T01:30:07;91487.97;;;18.81;99.54
54996;BME280;40893;47.146;9.126;2022-07-23T01:32:33;91462.16;;;18.76;95.91
54996;BME280;40893;47.146;9.126;2022-07-23T01:34:59;91460.56;;;18.83;99.48
54996;BME280;40893;47.146;9.126;2022-07-23T01:37:24;91466.31;;;18.89;99.91
54996;BME280;40893;47.146;9.126;2022-07-23T01:39:50;91471.94;;;18.91;100.00
54996;BME280;40893;47.146;9.126;2022-07-23T01:42:18;91474.66;;;18.82;100.00
54996;BME280;40893;47.146;9.126;2022-07-23T01:44:43;91486.41;;;18.68;100.00
54996;BME280;40893;47.146;9.126;2022-07-23T01:47:09;91471.44;;;18.65;100.00
54996;BME280;40893;47.146;9.126;2022-07-23T01:49:34;91480.44;;;18.46;100.00
54996;BME280;40893;47.146;9.126;2022-07-23T01:52:00;91473.28;;;18.43;100.00
54996;BME280;40893;47.146;9.126;2022-07-23T01:54:29;91460.75;;;18.45;100.00
54996;BME280;40893;47.146;9.126;2022-07-23T01:56:55;91461.28;;;18.39;100.00
54996;BME280;40893;47.146;9.126;2022-07-23T01:59:21;91465.19;;;18.45;100.00
54996;BME280;40893;47.146;9.126;2022-07-23T02:01:47;91465.53;;;18.56;100.00
54996;BME280;40893;47.146;9.126;2022-07-23T02:04:16;91465.75;;;18.50;100.00
54996;BME280;40893;47.146;9.126;2022-07-23T02:06:42;91476.25;;;18.54;100.00
54996;BME280;40893;47.146;9.126;2022-07-23T02:09:07;91483.41;;;18.57;100.00
54996;BME280;40893;47.146;9.126;2022-07-23T02:11:33;91488.88;;;18.64;100.00
54996;BME280;40893;47.146;9.126;2022-07-23T02:13:58;91494.81;;;18.65;100.00
54996;BME280;40893;47.146;9.126;2022-07-23T02:16:25;91489.00;;;18.68;100.00
54996;BME280;40893;47.146;9.126;2022-07-23T02:18:50;91487.59;;;18.70;100.00
54996;BME280;40893;47.146;9.126;2022-07-23T02:21:16;91472.00;;;18.70;100.00
54996;BME280;40893;47.146;9.126;2022-07-23T02:23:41;91472.66;;;18.67;100.00
54996;BME280;40893;47.146;9.126;2022-07-23T02:26:07;91471.34;;;18.61;100.00
54996;BME280;40893;47.146;9.126;2022-07-23T02:28:32;91464.94;;;18.59;100.00
54996;BME280;40893;47.146;9.126;2022-07-23T02:30:57;91471.66;;;18.60;100.00
54996;BME280;40893;47.146;9.126;2022-07-23T02:33:23;91476.69;;;18.56;100.00
54996;BME280;40893;47.146;9.126;2022-07-23T02:35:49;91489.84;;;18.60;100.00
54996;BME280;40893;47.146;9.126;2022-07-23T02:38:14;91491.19;;;18.57;100.00
54996;BME280;40893;47.146;9.126;2022-07-23T02:40:40;91493.19;;;18.60;100.00
54996;BME280;40893;47.146;9.126;2022-07-23T02:43:05;91482.84;;;18.51;100.00
54996;BME280;40893;47.146;9.126;2022-07-23T02:45:31;91498.63;;;18.46;100.00
54996;BME280;40893;47.146;9.126;2022-07-23T02:47:56;91478.88;;;18.33;100.00
54996;BME280;40893;47.146;9.126;2022-07-23T02:50:25;91481.78;;;18.32;99.21
54996;BME280;40893;47.146;9.126;2022-07-23T02:52:51;91480.53;;;18.38;100.00
54996;BME280;40893;47.146;9.126;2022-07-23T02:55:17;91478.78;;;18.42;97.79
54996;BME280;40893;47.146;9.126;2022-07-23T02:57:42;91469.28;;;18.46;100.00
54996;BME280;40893;47.146;9.126;2022-07-23T03:00:08;91461.50;;;18.46;98.98
54996;BME280;40893;47.146;9.126;2022-07-23T03:02:34;91485.28;;;18.36;100.00
54996;BME280;40893;47.146;9.126;2022-07-23T03:04:59;91503.44;;;18.36;100.00
54996;BME280;40893;47.146;9.126;2022-07-23T03:07:25;91506.75;;;18.24;98.42
54996;BME280;40893;47.146;9.126;2022-07-23T03:09:50;91509.34;;;18.24;98.04
54996;BME280;40893;47.146;9.126;2022-07-23T03:12:16;91510.41;;;18.23;96.63
54996;BME280;40893;47.146;9.126;2022-07-23T03:14:41;91509.97;;;18.21;98.26
54996;BME280;40893;47.146;9.126;2022-07-23T03:17:07;91515.38;;;18.16;93.97
54996;BME280;40893;47.146;9.126;2022-07-23T03:19:33;91511.94;;;18.24;96.03
54996;BME280;40893;47.146;9.126;2022-07-23T03:21:59;91517.66;;;18.38;100.00
54996;BME280;40893;47.146;9.126;2022-07-23T03:24:24;91510.41;;;18.44;98.35
54996;BME280;40893;47.146;9.126;2022-07-23T03:27:10;91507.25;;;18.38;99.94
54996;BME280;40893;47.146;9.126;2022-07-23T03:29:35;91511.47;;;18.43;100.00
54996;BME280;40893;47.146;9.126;2022-07-23T03:32:03;91512.69;;;18.45;96.59
54996;BME280;40893;47.146;9.126;2022-07-23T03:34:28;91521.38;;;18.49;95.20
54996;BME280;40893;47.146;9.126;2022-07-23T03:36:54;91528.53;;;18.52;94.61
54996;BME280;40893;47.146;9.126;2022-07-23T03:39:19;91552.03;;;18.56;97.33
54996;BME280;40893;47.146;9.126;2022-07-23T03:41:45;91594.53;;;18.51;98.05
54996;BME280;40893;47.146;9.126;2022-07-23T03:44:10;91643.03;;;18.47;97.30
54996;BME280;40893;47.146;9.126;2022-07-23T03:46:36;91654.97;;;18.40;99.30
54996;BME280;40893;47.146;9.126;2022-07-23T03:49:02;91624.75;;;18.35;99.96
54996;BME280;40893;47.146;9.126;2022-07-23T03:51:27;91592.25;;;18.29;100.00
54996;BME280;40893;47.146;9.126;2022-07-23T03:53:53;91593.34;;;18.28;98.87
54996;BME280;40893;47.146;9.126;2022-07-23T03:56:19;91563.50;;;18.34;100.00
54996;BME280;40893;47.146;9.126;2022-07-23T03:58:45;91533.19;;;18.18;100.00
54996;BME280;40893;47.146;9.126;2022-07-23T04:01:11;91531.44;;;18.09;100.00
54996;BME280;40893;47.146;9.126;2022-07-23T04:03:37;91509.59;;;18.10;100.00
54996;BME280;40893;47.146;9.126;2022-07-23T04:06:03;91495.72;;;18.06;100.00
54996;BME280;40893;47.146;9.126;2022-07-23T04:08:28;91500.72;;;18.11;100.00
54996;BME280;40893;47.146;9.126;2022-07-23T04:10:54;91501.19;;;18.13;100.00
54996;BME280;40893;47.146;9.126;2022-07-23T04:13:19;91493.06;;;18.15;100.00
54996;BME280;40893;47.146;9.126;2022-07-23T04:15:45;91488.75;;;18.19;100.00
54996;BME280;40893;47.146;9.126;2022-07-23T04:18:10;91478.88;;;18.12;100.00
54996;BME280;40893;47.146;9.126;2022-07-23T04:20:35;91478.56;;;18.14;100.00
54996;BME280;40893;47.146;9.126;2022-07-23T04:23:01;91495.97;;;18.13;100.00
54996;BME280;40893;47.146;9.126;2022-07-23T04:25:27;91488.00;;;18.19;100.00
54996;BME280;40893;47.146;9.126;2022-07-23T04:27:52;91476.28;;;17.92;100.00
54996;BME280;40893;47.146;9.126;2022-07-23T04:30:18;91474.38;;;18.01;100.00
54996;BME280;40893;47.146;9.126;2022-07-23T04:32:43;91472.16;;;18.11;100.00
54996;BME280;40893;47.146;9.126;2022-07-23T04:35:09;91476.16;;;18.09;100.00
54996;BME280;40893;47.146;9.126;2022-07-23T04:37:34;91477.28;;;17.99;100.00
54996;BME280;40893;47.146;9.126;2022-07-23T04:40:00;91477.13;;;18.04;100.00
54996;BME280;40893;47.146;9.126;2022-07-23T04:42:25;91482.34;;;17.96;100.00
54996;BME280;40893;47.146;9.126;2022-07-23T04:44:51;91484.16;;;18.04;100.00
54996;BME280;40893;47.146;9.126;2022-07-23T04:47:16;91476.16;;;18.09;100.00
54996;BME280;40893;47.146;9.126;2022-07-23T04:49:42;91461.91;;;18.15;100.00
54996;BME280;40893;47.146;9.126;2022-07-23T04:52:07;91464.19;;;18.17;100.00
54996;BME280;40893;47.146;9.126;2022-07-23T04:54:33;91470.78;;;18.14;97.94
54996;BME280;40893;47.146;9.126;2022-07-23T04:56:58;91464.97;;;18.17;100.00
54996;BME280;40893;47.146;9.126;2022-07-23T04:59:24;91462.28;;;18.26;100.00
54996;BME280;40893;47.146;9.126;2022-07-23T05:01:49;91457.78;;;18.35;100.00
54996;BME280;40893;47.146;9.126;2022-07-23T05:04:15;91468.69;;;18.28;100.00
54996;BME280;40893;47.146;9.126;2022-07-23T05:06:40;91465.69;;;18.18;100.00
54996;BME280;40893;47.146;9.126;2022-07-23T05:09:06;91472.75;;;18.17;100.00
54996;BME280;40893;47.146;9.126;2022-07-23T05:11:31;91471.91;;;18.25;100.00
54996;BME280;40893;47.146;9.126;2022-07-23T05:13:57;91481.78;;;18.32;100.00
54996;BME280;40893;47.146;9.126;2022-07-23T05:16:22;91486.47;;;18.38;100.00
54996;BME280;40893;47.146;9.126;2022-07-23T05:18:48;91481.47;;;18.33;100.00
54996;BME280;40893;47.146;9.126;2022-07-23T05:21:13;91476.13;;;18.30;100.00
54996;BME280;40893;47.146;9.126;2022-07-23T05:23:39;91468.44;;;18.21;100.00
54996;BME280;40893;47.146;9.126;2022-07-23T05:26:04;91478.63;;;18.26;100.00
54996;BME280;40893;47.146;9.126;2022-07-23T05:28:30;91486.97;;;18.32;100.00
54996;BME280;40893;47.146;9.126;2022-07-23T05:30:55;91501.00;;;18.39;100.00
54996;BME280;40893;47.146;9.126;2022-07-23T05:33:21;91503.38;;;18.44;100.00
54996;BME280;40893;47.146;9.126;2022-07-23T05:35:46;91495.03;;;18.39;100.00
54996;BME280;40893;47.146;9.126;2022-07-23T05:38:12;91517.81;;;18.33;100.00
54996;BME280;40893;47.146;9.126;2022-07-23T05:40:37;91531.44;;;18.30;100.00
54996;BME280;40893;47.146;9.126;2022-07-23T05:43:03;91535.25;;;18.33;100.00
54996;BME280;40893;47.146;9.126;2022-07-23T05:45:28;91561.34;;;18.36;100.00
54996;BME280;40893;47.146;9.126;2022-07-23T05:47:54;91559.00;;;18.43;100.00
54996;BME280;40893;47.146;9.126;2022-07-23T05:50:19;91565.97;;;18.51;100.00
54996;BME280;40893;47.146;9.126;2022-07-23T05:52:45;91574.94;;;18.63;100.00
54996;BME280;40893;47.146;9.126;2022-07-23T05:55:11;91578.28;;;18.63;99.66
54996;BME280;40893;47.146;9.126;2022-07-23T05:57:37;91581.47;;;18.69;100.00
54996;BME280;40893;47.146;9.126;2022-07-23T06:00:05;91572.72;;;18.73;100.00
54996;BME280;40893;47.146;9.126;2022-07-23T06:02:31;91576.41;;;18.72;100.00
54996;BME280;40893;47.146;9.126;2022-07-23T06:04:56;91575.25;;;18.82;100.00
54996;BME280;40893;47.146;9.126;2022-07-23T06:07:21;91577.44;;;18.92;100.00
54996;BME280;40893;47.146;9.126;2022-07-23T06:09:47;91584.00;;;19.10;100.00
54996;BME280;40893;47.146;9.126;2022-07-23T06:12:15;91570.84;;;19.28;100.00
54996;BME280;40893;47.146;9.126;2022-07-23T06:14:40;91576.91;;;19.32;99.97
54996;BME280;40893;47.146;9.126;2022-07-23T06:17:06;91575.59;;;19.26;100.00
54996;BME280;40893;47.146;9.126;2022-07-23T06:19:31;91583.91;;;19.19;100.00
54996;BME280;40893;47.146;9.126;2022-07-23T06:21:57;91596.59;;;19.20;100.00
54996;BME280;40893;47.146;9.126;2022-07-23T06:24:22;91610.38;;;19.21;99.53
54996;BME280;40893;47.146;9.126;2022-07-23T06:26:48;91601.81;;;19.20;99.67
54996;BME280;40893;47.146;9.126;2022-07-23T06:29:13;91600.28;;;19.07;100.00
54996;BME280;40893;47.146;9.126;2022-07-23T06:31:40;91607.50;;;19.02;98.58
54996;BME280;40893;47.146;9.126;2022-07-23T06:34:05;91604.44;;;19.00;99.47
54996;BME280;40893;47.146;9.126;2022-07-23T06:36:31;91612.38;;;19.03;100.00
54996;BME280;40893;47.146;9.126;2022-07-23T06:38:56;91613.91;;;19.04;100.00
54996;BME280;40893;47.146;9.126;2022-07-23T06:41:22;91605.41;;;18.95;100.00
54996;BME280;40893;47.146;9.126;2022-07-23T06:43:50;91602.91;;;18.99;100.00
54996;BME280;40893;47.146;9.126;2022-07-23T06:46:16;91585.03;;;18.97;100.00
54996;BME280;40893;47.146;9.126;2022-07-23T06:49:33;91567.50;;;18.94;100.00
54996;BME280;40893;47.146;9.126;2022-07-23T06:52:15;91586.66;;;18.90;100.00
54996;BME280;40893;47.146;9.126;2022-07-23T06:54:55;91581.53;;;18.81;100.00
54996;BME280;40893;47.146;9.126;2022-07-23T06:57:59;91575.31;;;18.73;100.00
54996;BME280;40893;47.146;9.126;2022-07-23T07:00:37;91589.88;;;18.66;100.00
54996;BME280;40893;47.146;9.126;2022-07-23T07:03:03;91604.63;;;18.62;100.00
54996;BME280;40893;47.146;9.126;2022-07-23T07:05:30;91609.50;;;18.55;100.00
54996;BME280;40893;47.146;9.126;2022-07-23T07:07:59;91606.09;;;18.63;100.00
54996;BME280;40893;47.146;9.126;2022-07-23T07:10:31;91609.75;;;18.70;100.00
54996;BME280;40893;47.146;9.126;2022-07-23T07:12:59;91622.97;;;18.77;100.00
54996;BME280;40893;47.146;9.126;2022-07-23T07:15:30;91636.25;;;18.84;100.00
54996;BME280;40893;47.146;9.126;2022-07-23T07:35:43;91643.47;;;18.49;100.00
54996;BME280;40893;47.146;9.126;2022-07-23T07:41:49;91653.09;;;18.49;100.00
54996;BME280;40893;47.146;9.126;2022-07-23T07:47:58;91640.34;;;18.65;100.00
54996;BME280;40893;47.146;9.126;2022-07-23T07:50:51;91646.50;;;18.60;100.00
54996;BME280;40893;47.146;9.126;2022-07-23T07:53:22;91636.69;;;18.57;100.00
54996;BME280;40893;47.146;9.126;2022-07-23T07:55:55;91635.91;;;18.65;100.00
54996;BME280;40893;47.146;9.126;2022-07-23T07:58:32;91637.69;;;18.73;100.00
54996;BME280;40893;47.146;9.126;2022-07-23T08:01:10;91628.31;;;18.81;100.00
54996;BME280;40893;47.146;9.126;2022-07-23T08:03:40;91626.72;;;18.89;100.00
54996;BME280;40893;47.146;9.126;2022-07-23T08:06:06;91643.91;;;19.02;100.00
54996;BME280;40893;47.146;9.126;2022-07-23T08:08:36;91632.34;;;19.11;100.00
54996;BME280;40893;47.146;9.126;2022-07-23T08:11:06;91629.66;;;19.20;100.00
54996;BME280;40893;47.146;9.126;2022-07-23T08:13:32;91643.25;;;19.26;100.00
54996;BME280;40893;47.146;9.126;2022-07-23T08:15:57;91632.28;;;19.32;100.00
54996;BME280;40893;47.146;9.126;2022-07-23T08:18:33;91627.84;;;19.33;100.00
54996;BME280;40893;47.146;9.126;2022-07-23T08:21:00;91632.44;;;19.36;100.00
54996;BME280;40893;47.146;9.126;2022-07-23T08:23:26;91633.31;;;19.40;98.32
54996;BME280;40893;47.146;9.126;2022-07-23T08:25:53;91640.47;;;19.43;100.00
54996;BME280;40893;47.146;9.126;2022-07-23T08:28:18;91633.41;;;19.43;100.00
54996;BME280;40893;47.146;9.126;2022-07-23T08:33:15;91630.66;;;19.48;100.00
54996;BME280;40893;47.146;9.126;2022-07-23T08:35:47;91620.38;;;19.52;100.00
54996;BME280;40893;47.146;9.126;2022-07-23T08:38:42;91617.16;;;19.46;100.00
54996;BME280;40893;47.146;9.126;2022-07-23T08:41:09;91618.34;;;19.37;100.00
54996;BME280;40893;47.146;9.126;2022-07-23T08:43:34;91613.91;;;19.37;100.00
54996;BME280;40893;47.146;9.126;2022-07-23T08:46:01;91604.47;;;19.45;100.00
54996;BME280;40893;47.146;9.126;2022-07-23T08:48:30;91594.72;;;19.42;100.00
54996;BME280;40893;47.146;9.126;2022-07-23T08:50:58;91603.81;;;19.36;100.00
54996;BME280;40893;47.146;9.126;2022-07-23T08:53:25;91604.13;;;19.34;100.00
54996;BME280;40893;47.146;9.126;2022-07-23T08:55:54;91600.63;;;19.30;100.00
54996;BME280;40893;47.146;9.126;2022-07-23T08:58:21;91598.41;;;19.41;100.00
54996;BME280;40893;47.146;9.126;2022-07-23T09:00:47;91600.84;;;19.58;100.00
54996;BME280;40893;47.146;9.126;2022-07-23T09:03:23;91598.41;;;19.86;100.00
54996;BME280;40893;47.146;9.126;2022-07-23T09:05:50;91602.19;;;20.13;100.00
54996;BME280;40893;47.146;9.126;2022-07-23T09:08:17;91608.34;;;20.33;100.00
54996;BME280;40893;47.146;9.126;2022-07-23T09:10:56;91607.97;;;20.43;100.00
54996;BME280;40893;47.146;9.126;2022-07-23T09:13:41;91602.38;;;20.69;100.00
54996;BME280;40893;47.146;9.126;2022-07-23T09:16:18;91601.44;;;20.89;100.00
54996;BME280;40893;47.146;9.126;2022-07-23T09:18:55;91593.81;;;20.96;100.00
54996;BME280;40893;47.146;9.126;2022-07-23T09:21:35;91600.50;;;21.09;100.00
54996;BME280;40893;47.146;9.126;2022-07-23T09:24:02;91598.25;;;21.08;94.60
54996;BME280;40893;47.146;9.126;2022-07-23T09:29:16;91598.22;;;21.35;95.36
54996;BME280;40893;47.146;9.126;2022-07-23T09:31:48;91592.88;;;21.44;93.61
54996;BME280;40893;47.146;9.126;2022-07-23T09:34:31;91590.38;;;21.63;94.62
54996;BME280;40893;47.146;9.126;2022-07-23T09:37:12;91596.50;;;21.71;91.30
54996;BME280;40893;47.146;9.126;2022-07-23T09:39:40;91585.13;;;21.79;95.99
54996;BME280;40893;47.146;9.126;2022-07-23T09:42:14;91588.19;;;21.81;92.45
54996;BME280;40893;47.146;9.126;2022-07-23T09:44:48;91596.44;;;21.83;87.61
54996;BME280;40893;47.146;9.126;2022-07-23T09:47:14;91587.84;;;21.67;84.42
54996;BME280;40893;47.146;9.126;2022-07-23T09:49:40;91590.63;;;21.74;88.61
54996;BME280;40893;47.146;9.126;2022-07-23T09:52:32;91589.44;;;21.71;95.21
54996;BME280;40893;47.146;9.126;2022-07-23T09:55:03;91584.22;;;21.71;93.21
54996;BME280;40893;47.146;9.126;2022-07-23T09:57:31;91580.63;;;21.76;93.52
54996;BME280;40893;47.146;9.126;2022-07-23T10:00:03;91577.47;;;21.70;91.79
54996;BME280;40893;47.146;9.126;2022-07-23T10:02:31;91580.50;;;21.72;93.96
54996;BME280;40893;47.146;9.126;2022-07-23T10:04:57;91575.38;;;21.76;92.44
54996;BME280;40893;47.146;9.126;2022-07-23T10:07:25;91576.72;;;21.86;90.79
54996;BME280;40893;47.146;9.126;2022-07-23T10:09:52;91574.13;;;22.01;92.57
54996;BME280;40893;47.146;9.126;2022-07-23T10:12:19;91566.56;;;22.12;93.75
54996;BME280;40893;47.146;9.126;2022-07-23T10:14:59;91575.44;;;22.27;89.69
54996;BME280;40893;47.146;9.126;2022-07-23T10:17:27;91563.44;;;22.41;87.21
54996;BME280;40893;47.146;9.126;2022-07-23T10:19:53;91573.94;;;22.61;82.52
54996;BME280;40893;47.146;9.126;2022-07-23T10:22:22;91579.97;;;22.80;87.45
54996;BME280;40893;47.146;9.126;2022-07-23T10:30:09;91581.19;;;23.25;81.78
54996;BME280;40893;47.146;9.126;2022-07-23T10:32:55;91577.66;;;23.37;78.91
54996;BME280;40893;47.146;9.126;2022-07-23T10:35:33;91572.88;;;23.20;76.15
54996;BME280;40893;47.146;9.126;2022-07-23T10:38:42;91575.56;;;23.23;76.08
54996;BME280;40893;47.146;9.126;2022-07-23T10:41:12;91574.03;;;23.22;75.10
54996;BME280;40893;47.146;9.126;2022-07-23T10:43:38;91580.31;;;23.17;78.69
54996;BME280;40893;47.146;9.126;2022-07-23T10:46:24;91575.06;;;23.17;81.26
54996;BME280;40893;47.146;9.126;2022-07-23T10:49:41;91572.47;;;23.17;76.03
54996;BME280;40893;47.146;9.126;2022-07-23T10:54:42;91565.69;;;23.16;79.96
54996;BME280;40893;47.146;9.126;2022-07-23T10:57:09;91558.38;;;23.26;78.13
54996;BME280;40893;47.146;9.126;2022-07-23T11:02:29;91558.34;;;23.64;79.61
54996;BME280;40893;47.146;9.126;2022-07-23T11:05:07;91560.56;;;23.85;78.21
54996;BME280;40893;47.146;9.126;2022-07-23T11:07:34;91553.19;;;23.68;75.75
54996;BME280;40893;47.146;9.126;2022-07-23T11:10:00;91551.59;;;23.86;79.79
54996;BME280;40893;47.146;9.126;2022-07-23T11:17:23;91552.75;;;23.88;72.38
54996;BME280;40893;47.146;9.126;2022-07-23T11:22:48;91551.31;;;23.91;78.65
54996;BME280;40893;47.146;9.126;2022-07-23T11:25:29;91552.16;;;23.99;79.55
54996;BME280;40893;47.146;9.126;2022-07-23T11:28:08;91545.81;;;24.00;78.41
54996;BME280;40893;47.146;9.126;2022-07-23T11:30:42;91545.63;;;24.12;80.33
54996;BME280;40893;47.146;9.126;2022-07-23T11:35:45;91546.41;;;23.89;76.23
54996;BME280;40893;47.146;9.126;2022-07-23T11:40:41;91551.91;;;23.81;77.35
54996;BME280;40893;47.146;9.126;2022-07-23T11:43:08;91555.50;;;23.73;78.34
54996;BME280;40893;47.146;9.126;2022-07-23T11:45:40;91549.22;;;23.77;78.01
54996;BME280;40893;47.146;9.126;2022-07-23T11:48:08;91551.75;;;23.74;76.93
54996;BME280;40893;47.146;9.126;2022-07-23T11:50:36;91553.38;;;23.82;81.06
54996;BME280;40893;47.146;9.126;2022-07-23T11:53:03;91552.25;;;23.79;78.50
54996;BME280;40893;47.146;9.126;2022-07-23T11:55:29;91562.22;;;23.97;81.08
54996;BME280;40893;47.146;9.126;2022-07-23T11:57:55;91544.03;;;24.07;80.17
54996;BME280;40893;47.146;9.126;2022-07-23T12:00:23;91549.59;;;24.02;79.13
54996;BME280;40893;47.146;9.126;2022-07-23T12:02:56;91547.31;;;24.01;76.90
54996;BME280;40893;47.146;9.126;2022-07-23T12:05:35;91552.91;;;23.99;77.08
54996;BME280;40893;47.146;9.126;2022-07-23T12:08:06;91547.69;;;23.99;80.90
54996;BME280;40893;47.146;9.126;2022-07-23T12:10:37;91544.03;;;24.07;77.30
54996;BME280;40893;47.146;9.126;2022-07-23T12:13:11;91540.22;;;24.01;77.94
54996;BME280;40893;47.146;9.126;2022-07-23T12:15:43;91540.78;;;24.14;85.03
54996;BME280;40893;47.146;9.126;2022-07-23T12:18:11;91540.66;;;24.30;80.67
54996;BME280;40893;47.146;9.126;2022-07-23T12:20:41;91541.63;;;24.21;79.28
54996;BME280;40893;47.146;9.126;2022-07-23T12:23:09;91544.97;;;24.18;77.30
54996;BME280;40893;47.146;9.126;2022-07-23T12:25:42;91550.38;;;24.06;78.40
54996;BME280;40893;47.146;9.126;2022-07-23T12:28:29;91552.84;;;23.96;77.73
54996;BME280;40893;47.146;9.126;2022-07-23T12:30:56;91540.84;;;23.95;80.30
54996;BME280;40893;47.146;9.126;2022-07-23T12:33:35;91547.06;;;24.09;79.50
54996;BME280;40893;47.146;9.126;2022-07-23T12:36:05;91548.59;;;24.10;80.16
54996;BME280;40893;47.146;9.126;2022-07-23T12:38:48;91541.44;;;24.07;78.94
54996;BME280;40893;47.146;9.126;2022-07-23T12:41:17;91540.25;;;24.05;80.52
54996;BME280;40893;47.146;9.126;2022-07-23T12:43:44;91537.53;;;23.98;78.94
54996;BME280;40893;47.146;9.126;2022-07-23T12:46:13;91548.50;;;24.03;80.28
54996;BME280;40893;47.146;9.126;2022-07-23T12:48:51;91546.75;;;23.88;80.34
54996;BME280;40893;47.146;9.126;2022-07-23T12:51:31;91551.34;;;23.95;78.27
54996;BME280;40893;47.146;9.126;2022-07-23T12:54:04;91546.50;;;23.97;80.79
54996;BME280;40893;47.146;9.126;2022-07-23T12:56:35;91553.25;;;23.98;79.14
54996;BME280;40893;47.146;9.126;2022-07-23T12:59:07;91546.91;;;23.99;79.38
54996;BME280;40893;47.146;9.126;2022-07-23T13:01:45;91539.47;;;24.01;77.41
54996;BME280;40893;47.146;9.126;2022-07-23T13:04:23;91532.19;;;23.91;80.55
54996;BME280;40893;47.146;9.126;2022-07-23T13:06:51;91535.97;;;23.93;80.58
54996;BME280;40893;47.146;9.126;2022-07-23T13:09:37;91539.75;;;23.96;81.04
54996;BME280;40893;47.146;9.126;2022-07-23T13:12:02;91545.41;;;23.98;79.62
54996;BME280;40893;47.146;9.126;2022-07-23T13:14:28;91540.16;;;23.98;77.62
54996;BME280;40893;47.146;9.126;2022-07-23T13:16:54;91538.19;;;23.91;76.93
54996;BME280;40893;47.146;9.126;2022-07-23T13:19:20;91542.88;;;23.78;81.54
54996;BME280;40893;47.146;9.126;2022-07-23T13:21:47;91544.59;;;23.71;80.41
54996;BME280;40893;47.146;9.126;2022-07-23T13:24:13;91531.34;;;23.60;79.13
54996;BME280;40893;47.146;9.126;2022-07-23T13:26:39;91531.34;;;23.60;79.91
54996;BME280;40893;47.146;9.126;2022-07-23T13:29:05;91525.16;;;23.72;79.99
54996;BME280;40893;47.146;9.126;2022-07-23T13:31:32;91525.22;;;23.75;77.87
54996;BME280;40893;47.146;9.126;2022-07-23T13:33:58;91522.69;;;23.82;80.74
54996;BME280;40893;47.146;9.126;2022-07-23T13:36:23;91522.59;;;23.75;77.53
54996;BME280;40893;47.146;9.126;2022-07-23T13:38:49;91523.28;;;23.72;76.96
54996;BME280;40893;47.146;9.126;2022-07-23T13:41:17;91517.59;;;23.67;76.76
54996;BME280;40893;47.146;9.126;2022-07-23T13:43:42;91520.84;;;23.60;81.34
54996;BME280;40893;47.146;9.126;2022-07-23T13:46:08;91530.19;;;23.58;78.57
54996;BME280;40893;47.146;9.126;2022-07-23T13:48:33;91536.63;;;23.64;79.29
54996;BME280;40893;47.146;9.126;2022-07-23T13:50:59;91538.84;;;23.62;79.13
54996;BME280;40893;47.146;9.126;2022-07-23T13:53:24;91545.50;;;23.56;78.32
54996;BME280;40893;47.146;9.126;2022-07-23T13:55:51;91560.44;;;23.55;77.97
54996;BME280;40893;47.146;9.126;2022-07-23T13:58:18;91550.19;;;23.46;79.60